sensor_id;sensor_type;location;lat;lon;timestamp;P1;durP1;ratioP1;P2;durP2;ratioP2
55065;SDS011;40964;42.114;24.220;2023-05-02T00:01:48;12.70;;;6.47;;
55065;SDS011;40964;42.114;24.220;2023-05-02T00:04:14;11.35;;;5.90;;
55065;SDS011;40964;42.114;24.220;2023-05-02T00:06:39;13.07;;;5.97;;
55065;SDS011;40964;42.114;24.220;2023-05-02T00:09:06;12.60;;;6.38;;
55065;SDS011;40964;42.114;24.220;2023-05-02T00:11:32;9.57;;;5.90;;
55065;SDS011;40964;42.114;24.220;2023-05-02T00:13:57;11.52;;;6.60;;
55065;SDS011;40964;42.114;24.220;2023-05-02T00:16:22;10.25;;;6.00;;
55065;SDS011;40964;42.114;24.220;2023-05-02T00:18:48;10.38;;;6.10;;
55065;SDS011;40964;42.114;24.220;2023-05-02T00:21:14;11.13;;;6.57;;
55065;SDS011;40964;42.114;24.220;2023-05-02T00:23:39;11.20;;;5.63;;
55065;SDS011;40964;42.114;24.220;2023-05-02T00:26:08;10.35;;;6.45;;
55065;SDS011;40964;42.114;24.220;2023-05-02T00:28:34;9.55;;;5.93;;
55065;SDS011;40964;42.114;24.220;2023-05-02T00:30:59;9.63;;;6.40;;
55065;SDS011;40964;42.114;24.220;2023-05-02T00:33:25;10.90;;;6.65;;
55065;SDS011;40964;42.114;24.220;2023-05-02T00:35:50;10.07;;;5.63;;
55065;SDS011;40964;42.114;24.220;2023-05-02T00:38:16;10.75;;;6.75;;
55065;SDS011;40964;42.114;24.220;2023-05-02T00:40:45;12.02;;;6.22;;
55065;SDS011;40964;42.114;24.220;2023-05-02T00:43:12;12.20;;;6.47;;
55065;SDS011;40964;42.114;24.220;2023-05-02T00:45:39;9.45;;;6.05;;
55065;SDS011;40964;42.114;24.220;2023-05-02T00:48:07;10.35;;;5.90;;
55065;SDS011;40964;42.114;24.220;2023-05-02T00:50:40;11.50;;;7.00;;
55065;SDS011;40964;42.114;24.220;2023-05-02T00:53:07;10.50;;;6.65;;
55065;SDS011;40964;42.114;24.220;2023-05-02T00:55:33;11.25;;;7.00;;
55065;SDS011;40964;42.114;24.220;2023-05-02T00:57:59;12.00;;;6.53;;
55065;SDS011;40964;42.114;24.220;2023-05-02T01:00:30;10.80;;;6.43;;
55065;SDS011;40964;42.114;24.220;2023-05-02T01:03:19;12.05;;;6.20;;
55065;SDS011;40964;42.114;24.220;2023-05-02T01:14:34;12.02;;;7.13;;
55065;SDS011;40964;42.114;24.220;2023-05-02T01:17:05;13.00;;;7.25;;
55065;SDS011;40964;42.114;24.220;2023-05-02T01:19:44;10.95;;;6.50;;
55065;SDS011;40964;42.114;24.220;2023-05-02T01:22:15;10.77;;;6.75;;
55065;SDS011;40964;42.114;24.220;2023-05-02T01:30:22;12.32;;;6.82;;
55065;SDS011;40964;42.114;24.220;2023-05-02T01:32:51;10.93;;;6.65;;
55065;SDS011;40964;42.114;24.220;2023-05-02T01:35:19;11.48;;;6.97;;
55065;SDS011;40964;42.114;24.220;2023-05-02T01:37:46;11.13;;;6.63;;
55065;SDS011;40964;42.114;24.220;2023-05-02T01:40:17;13.68;;;7.15;;
55065;SDS011;40964;42.114;24.220;2023-05-02T01:42:45;12.18;;;6.90;;
55065;SDS011;40964;42.114;24.220;2023-05-02T01:45:15;10.65;;;7.35;;
55065;SDS011;40964;42.114;24.220;2023-05-02T01:47:41;12.70;;;7.78;;
55065;SDS011;40964;42.114;24.220;2023-05-02T01:50:10;14.32;;;7.15;;
55065;SDS011;40964;42.114;24.220;2023-05-02T01:52:38;15.15;;;8.38;;
55065;SDS011;40964;42.114;24.220;2023-05-02T01:55:06;12.68;;;7.25;;
55065;SDS011;40964;42.114;24.220;2023-05-02T01:57:35;13.10;;;7.55;;
55065;SDS011;40964;42.114;24.220;2023-05-02T02:00:04;10.23;;;6.70;;
55065;SDS011;40964;42.114;24.220;2023-05-02T02:02:31;14.68;;;7.10;;
55065;SDS011;40964;42.114;24.220;2023-05-02T02:04:59;16.67;;;7.65;;
55065;SDS011;40964;42.114;24.220;2023-05-02T02:07:26;11.27;;;7.20;;
55065;SDS011;40964;42.114;24.220;2023-05-02T02:09:52;11.57;;;6.47;;
55065;SDS011;40964;42.114;24.220;2023-05-02T02:14:56;13.60;;;7.43;;
55065;SDS011;40964;42.114;24.220;2023-05-02T02:17:36;13.45;;;7.28;;
55065;SDS011;40964;42.114;24.220;2023-05-02T02:20:04;13.68;;;7.47;;
55065;SDS011;40964;42.114;24.220;2023-05-02T02:22:33;12.30;;;7.57;;
55065;SDS011;40964;42.114;24.220;2023-05-02T02:25:02;10.40;;;7.03;;
55065;SDS011;40964;42.114;24.220;2023-05-02T02:27:30;11.27;;;7.13;;
55065;SDS011;40964;42.114;24.220;2023-05-02T02:29:55;11.15;;;6.95;;
55065;SDS011;40964;42.114;24.220;2023-05-02T02:32:21;12.05;;;7.22;;
55065;SDS011;40964;42.114;24.220;2023-05-02T02:34:47;12.38;;;7.72;;
55065;SDS011;40964;42.114;24.220;2023-05-02T02:37:19;13.65;;;7.68;;
55065;SDS011;40964;42.114;24.220;2023-05-02T02:47:43;11.98;;;7.35;;
55065;SDS011;40964;42.114;24.220;2023-05-02T02:50:29;11.60;;;6.85;;
55065;SDS011;40964;42.114;24.220;2023-05-02T02:53:04;11.75;;;6.85;;
55065;SDS011;40964;42.114;24.220;2023-05-02T02:58:38;13.00;;;7.30;;
55065;SDS011;40964;42.114;24.220;2023-05-02T03:01:16;14.95;;;7.35;;
55065;SDS011;40964;42.114;24.220;2023-05-02T03:03:44;18.20;;;7.30;;
55065;SDS011;40964;42.114;24.220;2023-05-02T03:06:11;13.60;;;7.40;;
55065;SDS011;40964;42.114;24.220;2023-05-02T03:08:38;14.10;;;8.18;;
55065;SDS011;40964;42.114;24.220;2023-05-02T03:11:05;15.80;;;7.50;;
55065;SDS011;40964;42.114;24.220;2023-05-02T03:13:30;19.58;;;7.53;;
55065;SDS011;40964;42.114;24.220;2023-05-02T03:18:43;14.85;;;8.30;;
55065;SDS011;40964;42.114;24.220;2023-05-02T03:21:09;15.57;;;9.15;;
55065;SDS011;40964;42.114;24.220;2023-05-02T03:23:34;12.80;;;6.82;;
55065;SDS011;40964;42.114;24.220;2023-05-02T03:26:00;13.27;;;7.53;;
55065;SDS011;40964;42.114;24.220;2023-05-02T03:28:26;17.33;;;7.80;;
55065;SDS011;40964;42.114;24.220;2023-05-02T03:30:52;13.32;;;8.13;;
55065;SDS011;40964;42.114;24.220;2023-05-02T03:33:18;16.80;;;7.95;;
55065;SDS011;40964;42.114;24.220;2023-05-02T03:35:44;13.43;;;7.43;;
55065;SDS011;40964;42.114;24.220;2023-05-02T03:38:10;16.08;;;7.65;;
55065;SDS011;40964;42.114;24.220;2023-05-02T03:40:35;16.90;;;8.60;;
55065;SDS011;40964;42.114;24.220;2023-05-02T03:43:01;11.23;;;7.47;;
55065;SDS011;40964;42.114;24.220;2023-05-02T03:45:26;14.90;;;8.35;;
55065;SDS011;40964;42.114;24.220;2023-05-02T03:47:51;14.43;;;9.02;;
55065;SDS011;40964;42.114;24.220;2023-05-02T03:50:17;10.88;;;7.18;;
55065;SDS011;40964;42.114;24.220;2023-05-02T03:52:43;15.45;;;7.85;;
55065;SDS011;40964;42.114;24.220;2023-05-02T03:55:08;11.18;;;7.03;;
55065;SDS011;40964;42.114;24.220;2023-05-02T03:57:34;11.77;;;7.40;;
55065;SDS011;40964;42.114;24.220;2023-05-02T04:00:00;9.32;;;6.53;;
55065;SDS011;40964;42.114;24.220;2023-05-02T04:02:25;10.10;;;6.55;;
55065;SDS011;40964;42.114;24.220;2023-05-02T04:04:50;10.00;;;7.00;;
55065;SDS011;40964;42.114;24.220;2023-05-02T04:07:16;14.15;;;8.98;;
55065;SDS011;40964;42.114;24.220;2023-05-02T04:09:43;10.75;;;7.03;;
55065;SDS011;40964;42.114;24.220;2023-05-02T04:12:09;8.90;;;5.63;;
55065;SDS011;40964;42.114;24.220;2023-05-02T04:14:35;10.65;;;6.35;;
55065;SDS011;40964;42.114;24.220;2023-05-02T04:17:00;10.15;;;6.38;;
55065;SDS011;40964;42.114;24.220;2023-05-02T04:19:26;10.60;;;6.65;;
55065;SDS011;40964;42.114;24.220;2023-05-02T04:21:51;9.55;;;6.35;;
55065;SDS011;40964;42.114;24.220;2023-05-02T04:24:17;13.00;;;6.72;;
55065;SDS011;40964;42.114;24.220;2023-05-02T04:26:43;9.00;;;5.72;;
55065;SDS011;40964;42.114;24.220;2023-05-02T04:29:08;10.88;;;7.28;;
55065;SDS011;40964;42.114;24.220;2023-05-02T04:31:34;8.90;;;6.68;;
55065;SDS011;40964;42.114;24.220;2023-05-02T04:34:00;11.20;;;7.78;;
55065;SDS011;40964;42.114;24.220;2023-05-02T04:36:25;13.48;;;8.02;;
55065;SDS011;40964;42.114;24.220;2023-05-02T04:38:52;11.02;;;7.85;;
55065;SDS011;40964;42.114;24.220;2023-05-02T04:41:18;12.63;;;7.45;;
55065;SDS011;40964;42.114;24.220;2023-05-02T04:43:45;18.58;;;8.07;;
55065;SDS011;40964;42.114;24.220;2023-05-02T04:46:11;10.30;;;7.43;;
55065;SDS011;40964;42.114;24.220;2023-05-02T04:48:37;17.00;;;7.68;;
55065;SDS011;40964;42.114;24.220;2023-05-02T04:51:06;12.32;;;6.85;;
55065;SDS011;40964;42.114;24.220;2023-05-02T04:53:32;13.38;;;7.60;;
55065;SDS011;40964;42.114;24.220;2023-05-02T04:55:57;12.25;;;7.30;;
55065;SDS011;40964;42.114;24.220;2023-05-02T04:58:23;13.00;;;7.70;;
55065;SDS011;40964;42.114;24.220;2023-05-02T05:00:48;10.90;;;6.85;;
55065;SDS011;40964;42.114;24.220;2023-05-02T05:03:14;11.25;;;7.38;;
55065;SDS011;40964;42.114;24.220;2023-05-02T05:05:39;14.48;;;7.75;;
55065;SDS011;40964;42.114;24.220;2023-05-02T05:08:05;9.73;;;6.70;;
55065;SDS011;40964;42.114;24.220;2023-05-02T05:10:30;11.90;;;7.30;;
55065;SDS011;40964;42.114;24.220;2023-05-02T05:12:56;10.80;;;6.63;;
55065;SDS011;40964;42.114;24.220;2023-05-02T05:15:21;12.85;;;6.97;;
55065;SDS011;40964;42.114;24.220;2023-05-02T05:17:49;13.68;;;6.82;;
55065;SDS011;40964;42.114;24.220;2023-05-02T05:20:15;14.77;;;7.47;;
55065;SDS011;40964;42.114;24.220;2023-05-02T05:22:40;11.88;;;6.47;;
55065;SDS011;40964;42.114;24.220;2023-05-02T05:25:09;11.18;;;6.60;;
55065;SDS011;40964;42.114;24.220;2023-05-02T05:27:35;8.30;;;5.95;;
55065;SDS011;40964;42.114;24.220;2023-05-02T05:30:02;9.95;;;6.93;;
55065;SDS011;40964;42.114;24.220;2023-05-02T05:32:28;12.10;;;7.80;;
55065;SDS011;40964;42.114;24.220;2023-05-02T05:34:54;13.13;;;7.18;;
55065;SDS011;40964;42.114;24.220;2023-05-02T05:37:20;12.30;;;6.93;;
55065;SDS011;40964;42.114;24.220;2023-05-02T05:39:46;10.77;;;6.95;;
55065;SDS011;40964;42.114;24.220;2023-05-02T05:42:12;11.32;;;7.18;;
55065;SDS011;40964;42.114;24.220;2023-05-02T05:44:38;16.27;;;7.60;;
55065;SDS011;40964;42.114;24.220;2023-05-02T05:47:03;12.18;;;7.05;;
55065;SDS011;40964;42.114;24.220;2023-05-02T05:49:29;9.57;;;6.60;;
55065;SDS011;40964;42.114;24.220;2023-05-02T05:51:54;10.57;;;6.80;;
55065;SDS011;40964;42.114;24.220;2023-05-02T05:54:20;11.80;;;7.10;;
55065;SDS011;40964;42.114;24.220;2023-05-02T05:56:45;11.50;;;7.13;;
55065;SDS011;40964;42.114;24.220;2023-05-02T05:59:11;12.05;;;7.78;;
55065;SDS011;40964;42.114;24.220;2023-05-02T06:01:37;10.52;;;7.10;;
55065;SDS011;40964;42.114;24.220;2023-05-02T06:04:02;9.70;;;6.28;;
55065;SDS011;40964;42.114;24.220;2023-05-02T06:06:29;11.38;;;6.78;;
55065;SDS011;40964;42.114;24.220;2023-05-02T06:08:56;13.48;;;6.88;;
55065;SDS011;40964;42.114;24.220;2023-05-02T06:11:21;11.02;;;7.43;;
55065;SDS011;40964;42.114;24.220;2023-05-02T06:13:48;15.25;;;6.75;;
55065;SDS011;40964;42.114;24.220;2023-05-02T06:16:15;10.63;;;6.57;;
55065;SDS011;40964;42.114;24.220;2023-05-02T06:18:42;9.10;;;6.60;;
55065;SDS011;40964;42.114;24.220;2023-05-02T06:21:08;11.27;;;6.97;;
55065;SDS011;40964;42.114;24.220;2023-05-02T06:23:33;9.27;;;6.78;;
55065;SDS011;40964;42.114;24.220;2023-05-02T06:25:59;8.30;;;6.05;;
55065;SDS011;40964;42.114;24.220;2023-05-02T06:28:25;11.55;;;7.20;;
55065;SDS011;40964;42.114;24.220;2023-05-02T06:33:22;10.05;;;6.38;;
55065;SDS011;40964;42.114;24.220;2023-05-02T06:35:51;13.65;;;6.55;;
55065;SDS011;40964;42.114;24.220;2023-05-02T06:38:19;11.27;;;6.25;;
55065;SDS011;40964;42.114;24.220;2023-05-02T06:40:45;11.30;;;6.88;;
55065;SDS011;40964;42.114;24.220;2023-05-02T06:43:11;12.30;;;6.90;;
55065;SDS011;40964;42.114;24.220;2023-05-02T06:45:37;13.02;;;7.00;;
55065;SDS011;40964;42.114;24.220;2023-05-02T06:48:03;10.60;;;6.68;;
55065;SDS011;40964;42.114;24.220;2023-05-02T06:50:29;10.35;;;6.75;;
55065;SDS011;40964;42.114;24.220;2023-05-02T06:52:54;11.15;;;7.05;;
55065;SDS011;40964;42.114;24.220;2023-05-02T06:55:20;10.80;;;6.90;;
55065;SDS011;40964;42.114;24.220;2023-05-02T06:57:47;11.48;;;7.13;;
55065;SDS011;40964;42.114;24.220;2023-05-02T07:00:13;11.48;;;6.95;;
55065;SDS011;40964;42.114;24.220;2023-05-02T07:02:40;12.82;;;6.30;;
55065;SDS011;40964;42.114;24.220;2023-05-02T07:05:05;9.70;;;6.28;;
55065;SDS011;40964;42.114;24.220;2023-05-02T07:07:31;10.70;;;6.63;;
55065;SDS011;40964;42.114;24.220;2023-05-02T07:09:56;9.32;;;6.50;;
55065;SDS011;40964;42.114;24.220;2023-05-02T07:12:22;11.80;;;7.60;;
55065;SDS011;40964;42.114;24.220;2023-05-02T07:14:47;9.93;;;6.18;;
55065;SDS011;40964;42.114;24.220;2023-05-02T07:17:13;11.35;;;6.60;;
55065;SDS011;40964;42.114;24.220;2023-05-02T07:19:39;11.25;;;7.10;;
55065;SDS011;40964;42.114;24.220;2023-05-02T07:22:05;11.13;;;6.80;;
55065;SDS011;40964;42.114;24.220;2023-05-02T07:24:31;12.55;;;7.05;;
55065;SDS011;40964;42.114;24.220;2023-05-02T07:29:30;9.77;;;7.07;;
55065;SDS011;40964;42.114;24.220;2023-05-02T07:31:56;9.55;;;6.38;;
55065;SDS011;40964;42.114;24.220;2023-05-02T07:34:21;11.70;;;6.72;;
55065;SDS011;40964;42.114;24.220;2023-05-02T07:36:46;13.50;;;7.25;;
55065;SDS011;40964;42.114;24.220;2023-05-02T07:39:12;11.02;;;7.35;;
55065;SDS011;40964;42.114;24.220;2023-05-02T07:41:37;10.60;;;7.55;;
55065;SDS011;40964;42.114;24.220;2023-05-02T07:44:03;11.07;;;7.72;;
55065;SDS011;40964;42.114;24.220;2023-05-02T07:46:28;11.27;;;7.63;;
55065;SDS011;40964;42.114;24.220;2023-05-02T07:48:54;12.35;;;7.63;;
55065;SDS011;40964;42.114;24.220;2023-05-02T07:51:19;10.82;;;7.85;;
55065;SDS011;40964;42.114;24.220;2023-05-02T07:53:46;11.00;;;7.18;;
55065;SDS011;40964;42.114;24.220;2023-05-02T07:56:14;13.05;;;7.70;;
55065;SDS011;40964;42.114;24.220;2023-05-02T07:58:39;11.82;;;8.30;;
55065;SDS011;40964;42.114;24.220;2023-05-02T08:01:05;12.85;;;7.72;;
55065;SDS011;40964;42.114;24.220;2023-05-02T08:03:30;12.18;;;7.65;;
55065;SDS011;40964;42.114;24.220;2023-05-02T08:05:56;11.55;;;7.50;;
55065;SDS011;40964;42.114;24.220;2023-05-02T08:08:22;12.90;;;7.78;;
55065;SDS011;40964;42.114;24.220;2023-05-02T08:10:47;14.38;;;9.15;;
55065;SDS011;40964;42.114;24.220;2023-05-02T08:13:15;14.15;;;8.88;;
55065;SDS011;40964;42.114;24.220;2023-05-02T08:15:41;10.52;;;7.88;;
55065;SDS011;40964;42.114;24.220;2023-05-02T08:18:06;17.73;;;9.68;;
55065;SDS011;40964;42.114;24.220;2023-05-02T08:20:32;11.70;;;8.57;;
55065;SDS011;40964;42.114;24.220;2023-05-02T08:22:57;11.55;;;7.80;;
55065;SDS011;40964;42.114;24.220;2023-05-02T08:25:22;14.65;;;7.60;;
55065;SDS011;40964;42.114;24.220;2023-05-02T08:27:48;12.35;;;8.48;;
55065;SDS011;40964;42.114;24.220;2023-05-02T08:30:13;14.00;;;8.98;;
55065;SDS011;40964;42.114;24.220;2023-05-02T08:32:39;14.45;;;9.50;;
55065;SDS011;40964;42.114;24.220;2023-05-02T08:35:04;12.52;;;8.63;;
55065;SDS011;40964;42.114;24.220;2023-05-02T08:37:30;13.95;;;8.80;;
55065;SDS011;40964;42.114;24.220;2023-05-02T08:39:56;13.75;;;8.63;;
55065;SDS011;40964;42.114;24.220;2023-05-02T08:42:21;12.70;;;8.52;;
55065;SDS011;40964;42.114;24.220;2023-05-02T08:44:48;10.70;;;7.82;;
55065;SDS011;40964;42.114;24.220;2023-05-02T08:47:14;9.95;;;7.95;;
55065;SDS011;40964;42.114;24.220;2023-05-02T08:49:42;11.30;;;7.93;;
55065;SDS011;40964;42.114;24.220;2023-05-02T08:52:08;14.75;;;8.32;;
55065;SDS011;40964;42.114;24.220;2023-05-02T08:54:36;11.82;;;7.68;;
55065;SDS011;40964;42.114;24.220;2023-05-02T08:57:03;10.68;;;7.68;;
55065;SDS011;40964;42.114;24.220;2023-05-02T08:59:29;11.05;;;7.65;;
55065;SDS011;40964;42.114;24.220;2023-05-02T09:01:58;11.10;;;7.45;;
55065;SDS011;40964;42.114;24.220;2023-05-02T09:04:30;12.93;;;7.72;;
55065;SDS011;40964;42.114;24.220;2023-05-02T09:06:59;10.10;;;7.80;;
55065;SDS011;40964;42.114;24.220;2023-05-02T09:09:25;9.10;;;7.13;;
55065;SDS011;40964;42.114;24.220;2023-05-02T09:11:51;11.13;;;7.63;;
55065;SDS011;40964;42.114;24.220;2023-05-02T09:14:17;12.57;;;7.78;;
55065;SDS011;40964;42.114;24.220;2023-05-02T09:16:42;9.73;;;6.70;;
55065;SDS011;40964;42.114;24.220;2023-05-02T09:19:08;10.55;;;6.97;;
55065;SDS011;40964;42.114;24.220;2023-05-02T09:21:34;10.77;;;8.00;;
55065;SDS011;40964;42.114;24.220;2023-05-02T09:24:20;15.02;;;8.68;;
55065;SDS011;40964;42.114;24.220;2023-05-02T09:29:27;15.80;;;9.38;;
55065;SDS011;40964;42.114;24.220;2023-05-02T09:32:00;13.30;;;8.80;;
55065;SDS011;40964;42.114;24.220;2023-05-02T09:34:27;15.52;;;8.73;;
55065;SDS011;40964;42.114;24.220;2023-05-02T09:36:52;14.38;;;9.30;;
55065;SDS011;40964;42.114;24.220;2023-05-02T09:39:25;15.60;;;10.00;;
55065;SDS011;40964;42.114;24.220;2023-05-02T09:41:55;13.77;;;9.57;;
55065;SDS011;40964;42.114;24.220;2023-05-02T09:44:22;15.40;;;9.35;;
55065;SDS011;40964;42.114;24.220;2023-05-02T09:47:00;15.38;;;10.07;;
55065;SDS011;40964;42.114;24.220;2023-05-02T09:49:44;15.85;;;9.65;;
55065;SDS011;40964;42.114;24.220;2023-05-02T09:52:13;12.27;;;8.38;;
55065;SDS011;40964;42.114;24.220;2023-05-02T09:54:41;14.60;;;7.70;;
55065;SDS011;40964;42.114;24.220;2023-05-02T09:57:06;13.75;;;8.75;;
55065;SDS011;40964;42.114;24.220;2023-05-02T09:59:32;14.45;;;8.55;;
55065;SDS011;40964;42.114;24.220;2023-05-02T10:02:02;13.07;;;8.57;;
55065;SDS011;40964;42.114;24.220;2023-05-02T10:04:29;12.73;;;8.63;;
55065;SDS011;40964;42.114;24.220;2023-05-02T10:06:55;12.07;;;8.50;;
55065;SDS011;40964;42.114;24.220;2023-05-02T10:09:21;11.70;;;8.50;;
55065;SDS011;40964;42.114;24.220;2023-05-02T10:11:50;12.57;;;9.20;;
55065;SDS011;40964;42.114;24.220;2023-05-02T10:14:18;17.83;;;6.20;;
55065;SDS011;40964;42.114;24.220;2023-05-02T10:16:58;6.57;;;5.25;;
55065;SDS011;40964;42.114;24.220;2023-05-02T10:22:24;7.50;;;5.03;;
55065;SDS011;40964;42.114;24.220;2023-05-02T10:24:51;9.40;;;6.15;;
55065;SDS011;40964;42.114;24.220;2023-05-02T10:27:18;7.38;;;5.35;;
55065;SDS011;40964;42.114;24.220;2023-05-02T10:29:43;11.80;;;5.40;;
55065;SDS011;40964;42.114;24.220;2023-05-02T10:32:10;6.63;;;4.68;;
55065;SDS011;40964;42.114;24.220;2023-05-02T10:34:39;5.75;;;4.20;;
55065;SDS011;40964;42.114;24.220;2023-05-02T10:37:05;6.15;;;4.63;;
55065;SDS011;40964;42.114;24.220;2023-05-02T10:39:31;8.93;;;4.45;;
55065;SDS011;40964;42.114;24.220;2023-05-02T10:41:57;9.60;;;4.80;;
55065;SDS011;40964;42.114;24.220;2023-05-02T10:44:38;5.50;;;4.18;;
55065;SDS011;40964;42.114;24.220;2023-05-02T10:47:21;6.15;;;4.32;;
55065;SDS011;40964;42.114;24.220;2023-05-02T10:49:51;5.40;;;4.00;;
55065;SDS011;40964;42.114;24.220;2023-05-02T10:52:31;9.63;;;4.30;;
55065;SDS011;40964;42.114;24.220;2023-05-02T11:00:21;5.53;;;3.55;;
55065;SDS011;40964;42.114;24.220;2023-05-02T11:02:48;4.90;;;3.70;;
55065;SDS011;40964;42.114;24.220;2023-05-02T11:05:14;5.88;;;3.35;;
55065;SDS011;40964;42.114;24.220;2023-05-02T11:07:39;9.05;;;3.97;;
55065;SDS011;40964;42.114;24.220;2023-05-02T11:12:52;3.70;;;2.97;;
55065;SDS011;40964;42.114;24.220;2023-05-02T11:18:01;5.30;;;2.63;;
55065;SDS011;40964;42.114;24.220;2023-05-02T11:20:34;4.43;;;2.30;;
55065;SDS011;40964;42.114;24.220;2023-05-02T11:25:38;5.05;;;2.25;;
55065;SDS011;40964;42.114;24.220;2023-05-02T11:28:06;4.90;;;2.10;;
55065;SDS011;40964;42.114;24.220;2023-05-02T11:30:42;2.15;;;1.77;;
55065;SDS011;40964;42.114;24.220;2023-05-02T11:33:10;3.20;;;1.80;;
55065;SDS011;40964;42.114;24.220;2023-05-02T11:35:36;3.85;;;1.90;;
55065;SDS011;40964;42.114;24.220;2023-05-02T11:38:10;2.45;;;1.70;;
55065;SDS011;40964;42.114;24.220;2023-05-02T11:40:37;2.88;;;1.85;;
55065;SDS011;40964;42.114;24.220;2023-05-02T11:43:15;2.85;;;1.70;;
55065;SDS011;40964;42.114;24.220;2023-05-02T11:45:42;2.63;;;1.70;;
55065;SDS011;40964;42.114;24.220;2023-05-02T11:48:07;4.97;;;1.90;;
55065;SDS011;40964;42.114;24.220;2023-05-02T11:50:40;3.42;;;1.70;;
55065;SDS011;40964;42.114;24.220;2023-05-02T11:53:14;2.25;;;1.60;;
55065;SDS011;40964;42.114;24.220;2023-05-02T11:55:44;3.13;;;1.58;;
55065;SDS011;40964;42.114;24.220;2023-05-02T11:58:11;3.70;;;1.60;;
55065;SDS011;40964;42.114;24.220;2023-05-02T12:00:38;3.63;;;2.00;;
55065;SDS011;40964;42.114;24.220;2023-05-02T12:03:04;3.03;;;1.75;;
55065;SDS011;40964;42.114;24.220;2023-05-02T12:05:30;2.85;;;1.70;;
55065;SDS011;40964;42.114;24.220;2023-05-02T12:07:56;8.00;;;1.58;;
55065;SDS011;40964;42.114;24.220;2023-05-02T12:10:22;1.90;;;1.48;;
55065;SDS011;40964;42.114;24.220;2023-05-02T12:13:02;2.17;;;1.85;;
55065;SDS011;40964;42.114;24.220;2023-05-02T12:15:29;7.35;;;2.10;;
55065;SDS011;40964;42.114;24.220;2023-05-02T12:17:55;3.03;;;1.60;;
55065;SDS011;40964;42.114;24.220;2023-05-02T12:20:21;2.45;;;1.70;;
55065;SDS011;40964;42.114;24.220;2023-05-02T12:22:46;3.25;;;2.00;;
55065;SDS011;40964;42.114;24.220;2023-05-02T12:25:12;1.80;;;1.30;;
55065;SDS011;40964;42.114;24.220;2023-05-02T12:27:38;4.35;;;1.70;;
55065;SDS011;40964;42.114;24.220;2023-05-02T12:30:03;2.85;;;1.50;;
55065;SDS011;40964;42.114;24.220;2023-05-02T12:32:31;2.00;;;1.52;;
55065;SDS011;40964;42.114;24.220;2023-05-02T12:34:58;3.22;;;1.88;;
55065;SDS011;40964;42.114;24.220;2023-05-02T12:37:24;2.58;;;1.60;;
55065;SDS011;40964;42.114;24.220;2023-05-02T12:39:51;2.63;;;1.50;;
55065;SDS011;40964;42.114;24.220;2023-05-02T12:42:20;2.15;;;1.50;;
55065;SDS011;40964;42.114;24.220;2023-05-02T12:44:48;2.30;;;1.13;;
55065;SDS011;40964;42.114;24.220;2023-05-02T12:47:17;2.35;;;1.40;;
55065;SDS011;40964;42.114;24.220;2023-05-02T12:50:01;2.65;;;1.30;;
55065;SDS011;40964;42.114;24.220;2023-05-02T12:57:41;1.35;;;1.25;;
55065;SDS011;40964;42.114;24.220;2023-05-02T13:00:07;2.00;;;1.20;;
55065;SDS011;40964;42.114;24.220;2023-05-02T13:02:33;2.50;;;1.50;;
55065;SDS011;40964;42.114;24.220;2023-05-02T13:04:58;2.67;;;1.30;;
55065;SDS011;40964;42.114;24.220;2023-05-02T13:07:24;2.35;;;1.25;;
55065;SDS011;40964;42.114;24.220;2023-05-02T13:09:50;2.38;;;1.55;;
55065;SDS011;40964;42.114;24.220;2023-05-02T13:12:15;2.78;;;1.52;;
55065;SDS011;40964;42.114;24.220;2023-05-02T13:14:42;2.33;;;1.58;;
55065;SDS011;40964;42.114;24.220;2023-05-02T13:17:08;3.08;;;1.48;;
55065;SDS011;40964;42.114;24.220;2023-05-02T13:19:34;2.88;;;1.60;;
55065;SDS011;40964;42.114;24.220;2023-05-02T13:21:59;1.88;;;1.25;;
55065;SDS011;40964;42.114;24.220;2023-05-02T13:24:24;2.28;;;2.08;;
55065;SDS011;40964;42.114;24.220;2023-05-02T13:29:25;10.88;;;1.92;;
55065;SDS011;40964;42.114;24.220;2023-05-02T13:31:50;2.38;;;1.35;;
55065;SDS011;40964;42.114;24.220;2023-05-02T13:34:16;4.70;;;1.55;;
55065;SDS011;40964;42.114;24.220;2023-05-02T13:36:41;1.83;;;1.60;;
55065;SDS011;40964;42.114;24.220;2023-05-02T13:39:10;2.03;;;1.35;;
55065;SDS011;40964;42.114;24.220;2023-05-02T13:41:36;3.25;;;1.50;;
55065;SDS011;40964;42.114;24.220;2023-05-02T13:44:02;2.42;;;1.13;;
55065;SDS011;40964;42.114;24.220;2023-05-02T13:46:27;4.03;;;1.60;;
55065;SDS011;40964;42.114;24.220;2023-05-02T13:48:53;3.22;;;1.17;;
55065;SDS011;40964;42.114;24.220;2023-05-02T13:51:18;2.58;;;1.70;;
55065;SDS011;40964;42.114;24.220;2023-05-02T13:53:44;2.75;;;1.75;;
55065;SDS011;40964;42.114;24.220;2023-05-02T13:56:09;1.67;;;1.20;;
55065;SDS011;40964;42.114;24.220;2023-05-02T13:58:34;1.45;;;1.20;;
55065;SDS011;40964;42.114;24.220;2023-05-02T14:01:00;5.70;;;1.40;;
55065;SDS011;40964;42.114;24.220;2023-05-02T14:03:26;1.35;;;1.20;;
55065;SDS011;40964;42.114;24.220;2023-05-02T14:05:51;4.80;;;1.67;;
55065;SDS011;40964;42.114;24.220;2023-05-02T14:08:17;1.73;;;1.30;;
55065;SDS011;40964;42.114;24.220;2023-05-02T14:10:43;3.65;;;1.38;;
55065;SDS011;40964;42.114;24.220;2023-05-02T14:13:09;2.85;;;1.58;;
55065;SDS011;40964;42.114;24.220;2023-05-02T14:15:34;1.88;;;1.65;;
55065;SDS011;40964;42.114;24.220;2023-05-02T14:18:01;3.65;;;1.60;;
55065;SDS011;40964;42.114;24.220;2023-05-02T14:20:27;1.95;;;1.35;;
55065;SDS011;40964;42.114;24.220;2023-05-02T14:22:52;3.47;;;1.30;;
55065;SDS011;40964;42.114;24.220;2023-05-02T14:25:18;10.93;;;1.88;;
55065;SDS011;40964;42.114;24.220;2023-05-02T14:27:45;4.15;;;2.45;;
55065;SDS011;40964;42.114;24.220;2023-05-02T14:30:10;4.03;;;1.65;;
55065;SDS011;40964;42.114;24.220;2023-05-02T14:32:36;3.00;;;1.40;;
55065;SDS011;40964;42.114;24.220;2023-05-02T14:35:02;1.00;;;1.00;;
55065;SDS011;40964;42.114;24.220;2023-05-02T14:37:28;1.40;;;1.25;;
55065;SDS011;40964;42.114;24.220;2023-05-02T14:39:54;8.55;;;1.42;;
55065;SDS011;40964;42.114;24.220;2023-05-02T14:42:21;2.03;;;1.20;;
55065;SDS011;40964;42.114;24.220;2023-05-02T14:44:47;2.28;;;1.20;;
55065;SDS011;40964;42.114;24.220;2023-05-02T14:47:12;2.72;;;1.40;;
55065;SDS011;40964;42.114;24.220;2023-05-02T14:49:38;2.47;;;1.27;;
55065;SDS011;40964;42.114;24.220;2023-05-02T14:52:03;4.40;;;1.20;;
55065;SDS011;40964;42.114;24.220;2023-05-02T14:54:29;1.38;;;1.10;;
55065;SDS011;40964;42.114;24.220;2023-05-02T14:56:54;3.53;;;1.20;;
55065;SDS011;40964;42.114;24.220;2023-05-02T14:59:20;7.10;;;1.70;;
55065;SDS011;40964;42.114;24.220;2023-05-02T15:01:46;3.10;;;1.27;;
55065;SDS011;40964;42.114;24.220;2023-05-02T15:04:11;3.50;;;1.50;;
55065;SDS011;40964;42.114;24.220;2023-05-02T15:06:37;3.58;;;1.60;;
55065;SDS011;40964;42.114;24.220;2023-05-02T15:09:03;1.80;;;1.50;;
55065;SDS011;40964;42.114;24.220;2023-05-02T15:11:29;1.27;;;1.17;;
55065;SDS011;40964;42.114;24.220;2023-05-02T15:13:55;1.58;;;1.23;;
55065;SDS011;40964;42.114;24.220;2023-05-02T15:16:21;1.08;;;1.08;;
55065;SDS011;40964;42.114;24.220;2023-05-02T15:18:46;2.28;;;1.10;;
55065;SDS011;40964;42.114;24.220;2023-05-02T15:21:11;3.20;;;1.50;;
55065;SDS011;40964;42.114;24.220;2023-05-02T15:23:37;1.83;;;1.10;;
55065;SDS011;40964;42.114;24.220;2023-05-02T15:26:02;2.05;;;1.20;;
55065;SDS011;40964;42.114;24.220;2023-05-02T15:28:28;1.65;;;1.40;;